This is the latest recevied weather packets stored in our database for station/object K0SNA. If no packets are shown the sender has not sent any weather packets the latest 10 day(s).
| Time | Temp. | Humidity | Pressure | Rain* | Wind** | Luminosity | Snow |
|---|---|---|---|---|---|---|---|
| 1778072749 | 3.33° C | 58% | 1016.8 hPa | 0 mm | - | 100 W/m² | - |
| 1778072447 | 3.33° C | 59% | 1016.9 hPa | 0 mm | - | 93 W/m² | - |
| 1778072145 | 3.33° C | 58% | 1016.9 hPa | 0 mm | - | 93 W/m² | - |
| 1778071843 | 3.33° C | 57% | 1016.8 hPa | 0 mm | - | 92 W/m² | - |
| 1778071540 | 3.33° C | 57% | 1016.6 hPa | 0 mm | - | 88 W/m² | - |
| 1778071238 | 3.89° C | 58% | 1016.6 hPa | 0 mm | - | 101 W/m² | - |
| 1778070936 | 3.33° C | 58% | 1016.5 hPa | 0 mm | - | 122 W/m² | - |
| 1778070634 | 3.33° C | 59% | 1016.6 hPa | 0 mm | - | 137 W/m² | - |
| 1778070330 | 3.33° C | 59% | 1016.3 hPa | 0 mm | - | 107 W/m² | - |
| 1778070028 | 2.78° C | 61% | 1016.3 hPa | 0 mm | - | 85 W/m² | - |
| 1778069726 | 2.78° C | 62% | 1016.3 hPa | 0 mm | - | 71 W/m² | - |
| 1778069421 | 2.78° C | 64% | 1016.2 hPa | 0 mm | - | 63 W/m² | - |
| 1778069120 | 2.22° C | 65% | 1016.3 hPa | 0 mm | - | 45 W/m² | - |
| 1778068817 | 1.67° C | 67% | 1016.2 hPa | 0 mm | - | 45 W/m² | - |
| 1778068515 | 1.67° C | 68% | 1016.2 hPa | 0 mm | - | 31 W/m² | - |
| 1778068213 | 1.11° C | 70% | 1015.9 hPa | 0 mm | - | 24 W/m² | - |
| 1778067910 | 0.56° C | 74% | 1015.8 hPa | 0 mm | - | 21 W/m² | - |
| 1778067608 | 0° C | 77% | 1015.6 hPa | 0 mm | - | 19 W/m² | - |
| 1778067306 | 0° C | 77% | 1015.8 hPa | 0 mm | - | 17 W/m² | - |
| 1778067003 | -0.56° C | 78% | 1015.7 hPa | 0 mm | - | 15 W/m² | - |
| 1778066699 | -0.56° C | 78% | 1015.5 hPa | 0 mm | - | 13 W/m² | - |
| 1778066396 | -0.56° C | 78% | 1015.5 hPa | 0 mm | - | 10 W/m² | - |
| 1778066095 | -0.56° C | 77% | 1015.6 hPa | 0 mm | - | 8 W/m² | - |
| 1778065791 | -0.56° C | 77% | 1015.5 hPa | 0 mm | - | 6 W/m² | - |
| 1778065489 | -0.56° C | 77% | 1015.6 hPa | 0 mm | - | 4 W/m² | - |
* Rain latest hour (hover to see other rain measurements)
** Current wind speed in m/s (hover to see current wind gust speed)